McNeal, Arizona
Current Conditions -  °F | °C
As of 9:56 AM on Wednesday 26 Nov 2014 (Local Time) from KDUG Reporting Station
Clear Clear  
Wind Chill: 52°   Ceiling: Unl
Heat Index: 52°   Visibility: 10mi
Dew Point:   Wind: 6mph
Humidity: 15%   Direction: 320°NW
Pressure: 30.38"   Gusts: NA
Location:  31.6°N, 109.67°W
Report Text: KDUG 261656Z AUTO 32005KT 10SM CLR 11/M15 A3038 RMK AO2 SLP270 T01111150
Loading
Personal Weather Stations






























Interactive Weather Map New forecast layout! Learn more

10-Day Weather Forecast

Advertisements
Track Severe Weather on mobile